createdAt,value
2022-11-29T00:01:26.465Z,5.17
2022-11-29T00:03:53.504Z,5.13
2022-11-29T00:06:22.739Z,5.11
2022-11-29T00:08:49.835Z,5.13
2022-11-29T00:11:19.297Z,5.15
2022-11-29T00:13:45.803Z,5.15
2022-11-29T00:16:12.286Z,5.18
2022-11-29T00:18:38.699Z,5.20
2022-11-29T00:21:08.642Z,5.14
2022-11-29T00:23:35.889Z,5.12
2022-11-29T00:26:07.035Z,5.10
2022-11-29T00:28:34.755Z,5.08
2022-11-29T00:31:01.794Z,5.10
2022-11-29T00:33:28.342Z,5.11
2022-11-29T00:35:54.841Z,5.16
2022-11-29T00:38:21.235Z,5.14
2022-11-29T00:40:51.900Z,5.12
2022-11-29T00:43:18.379Z,5.12
2022-11-29T00:45:44.778Z,5.12
2022-11-29T00:48:11.169Z,5.12
2022-11-29T00:50:37.579Z,5.10
2022-11-29T00:53:04.225Z,5.10
2022-11-29T00:55:30.776Z,5.12
2022-11-29T00:57:57.148Z,5.14
2022-11-29T01:00:23.526Z,5.16
2022-11-29T01:02:49.902Z,5.17
2022-11-29T01:05:16.327Z,5.16
2022-11-29T01:07:42.893Z,5.13
2022-11-29T01:10:09.947Z,5.10
2022-11-29T01:12:37.267Z,5.17
2022-11-29T01:15:05.871Z,5.20
2022-11-29T01:17:35.088Z,5.16
2022-11-29T01:20:02.024Z,5.17
2022-11-29T01:22:28.494Z,5.18
2022-11-29T01:24:54.855Z,5.20
2022-11-29T01:27:21.423Z,5.19
2022-11-29T01:29:47.770Z,5.21
2022-11-29T01:32:14.617Z,5.20
2022-11-29T01:34:41.333Z,5.20
2022-11-29T01:37:07.869Z,5.18
2022-11-29T01:39:34.419Z,5.18
2022-11-29T01:42:00.958Z,5.19
2022-11-29T01:44:27.248Z,5.19
2022-11-29T01:46:54.283Z,5.20
2022-11-29T01:49:29.024Z,5.21
2022-11-29T01:52:00.985Z,5.23
2022-11-29T01:54:29.647Z,5.22
2022-11-29T01:56:56.257Z,5.23
2022-11-29T01:59:25.747Z,5.25
2022-11-29T02:01:52.976Z,5.29
2022-11-29T02:04:19.608Z,5.30
2022-11-29T02:06:46.731Z,5.32
2022-11-29T02:09:21.431Z,5.33
2022-11-29T02:12:20.951Z,5.32
2022-11-29T02:15:12.157Z,5.32
2022-11-29T02:17:53.547Z,5.35
2022-11-29T02:20:54.511Z,5.35
2022-11-29T02:23:51.214Z,5.38
2022-11-29T02:26:38.992Z,5.40
2022-11-29T02:29:30.275Z,5.41
2022-11-29T02:32:14.837Z,5.41
2022-11-29T02:35:31.470Z,5.44
2022-11-29T02:38:19.693Z,5.44
2022-11-29T02:41:00.369Z,5.43
2022-11-29T02:43:31.996Z,5.43
2022-11-29T02:46:16.736Z,5.41
2022-11-29T02:49:19.851Z,5.43
2022-11-29T02:51:55.574Z,5.46
2022-11-29T02:54:33.877Z,5.47
2022-11-29T02:57:11.607Z,5.47
2022-11-29T02:59:58.820Z,5.47
2022-11-29T03:02:46.443Z,5.49
2022-11-29T03:05:33.656Z,5.50
2022-11-29T03:08:11.217Z,5.49
2022-11-29T03:10:56.821Z,5.51
2022-11-29T03:13:38.442Z,5.51
2022-11-29T03:16:15.067Z,5.52
2022-11-29T03:19:04.886Z,5.53
2022-11-29T03:21:45.997Z,5.56
2022-11-29T03:24:23.232Z,5.57
2022-11-29T03:26:55.890Z,5.59
2022-11-29T03:29:42.931Z,5.60
2022-11-29T03:32:43.122Z,5.59
2022-11-29T03:35:37.384Z,5.60
2022-11-29T03:38:16.021Z,5.59
2022-11-29T03:40:52.347Z,5.62
2022-11-29T03:43:52.650Z,5.61
2022-11-29T03:46:29.103Z,5.56
2022-11-29T03:49:11.049Z,5.54
2022-11-29T03:52:11.621Z,5.56
2022-11-29T03:54:49.715Z,5.59
2022-11-29T03:57:26.357Z,5.59
2022-11-29T04:00:02.081Z,5.55
2022-11-29T04:02:54.327Z,5.55
2022-11-29T04:05:41.595Z,5.57
2022-11-29T04:08:26.962Z,5.61
2022-11-29T04:11:30.911Z,5.63
2022-11-29T04:14:27.787Z,5.62
2022-11-29T04:17:20.559Z,5.63
2022-11-29T04:20:26.112Z,5.65
2022-11-29T04:22:58.500Z,5.67
2022-11-29T04:25:33.677Z,5.71
2022-11-29T04:28:32.739Z,5.67
2022-11-29T04:31:21.089Z,5.68
2022-11-29T04:33:58.361Z,5.71
2022-11-29T04:36:57.141Z,5.73
2022-11-29T04:39:42.887Z,5.68
2022-11-29T04:42:25.601Z,5.69
2022-11-29T04:45:35.303Z,5.73
2022-11-29T04:48:21.718Z,5.75
2022-11-29T04:51:09.625Z,5.71
2022-11-29T04:53:55.495Z,5.74
2022-11-29T04:56:42.733Z,5.74
2022-11-29T04:59:25.383Z,5.73
2022-11-29T05:02:07.254Z,5.73
2022-11-29T05:05:01.090Z,5.74
2022-11-29T05:08:09.623Z,5.76
2022-11-29T05:11:10.551Z,5.75
2022-11-29T05:13:59.715Z,5.77
2022-11-29T05:16:45.113Z,5.79
2022-11-29T05:19:28.484Z,5.79
2022-11-29T05:22:23.572Z,5.79
2022-11-29T05:24:50.037Z,5.82
2022-11-29T05:27:28.309Z,5.82
2022-11-29T05:30:15.116Z,5.83
2022-11-29T05:32:55.661Z,5.82
2022-11-29T05:35:46.749Z,5.84
2022-11-29T05:38:31.923Z,5.84
2022-11-29T05:41:28.637Z,5.83
2022-11-29T05:44:16.305Z,5.83
2022-11-29T05:47:04.739Z,5.84
2022-11-29T05:49:53.838Z,5.85
2022-11-29T05:52:49.618Z,5.85
2022-11-29T05:55:53.091Z,5.85
2022-11-29T05:58:30.076Z,5.84
2022-11-29T06:01:24.242Z,5.86
2022-11-29T06:03:59.672Z,5.84
2022-11-29T06:06:42.203Z,5.87
2022-11-29T06:09:23.800Z,5.87
2022-11-29T06:11:55.124Z,5.88
2022-11-29T06:14:40.419Z,5.90
2022-11-29T06:17:25.041Z,5.91
2022-11-29T06:20:02.876Z,5.90
2022-11-29T06:22:55.272Z,5.91
2022-11-29T06:25:30.734Z,5.91
2022-11-29T06:28:29.325Z,5.91
2022-11-29T06:31:16.545Z,5.92
2022-11-29T06:34:22.418Z,5.93
2022-11-29T06:36:57.127Z,5.93
2022-11-29T06:39:23.932Z,5.89
2022-11-29T06:41:50.318Z,5.90
2022-11-29T06:44:17.013Z,5.92
2022-11-29T06:46:47.121Z,5.91
2022-11-29T06:49:27.282Z,5.89
2022-11-29T06:52:08.253Z,5.89
2022-11-29T06:54:51.285Z,5.91
2022-11-29T06:57:55.088Z,5.89
2022-11-29T07:00:27.560Z,5.87
2022-11-29T07:03:22.745Z,5.89
2022-11-29T07:05:49.652Z,5.88
2022-11-29T07:08:19.075Z,5.88
2022-11-29T07:10:47.503Z,5.90
2022-11-29T07:13:14.249Z,5.91
2022-11-29T07:15:55.584Z,5.91
2022-11-29T07:18:37.396Z,5.92
2022-11-29T07:21:24.376Z,5.90
2022-11-29T07:24:08.677Z,5.89
2022-11-29T07:26:46.331Z,5.91
2022-11-29T07:29:34.811Z,5.91
2022-11-29T07:32:21.400Z,5.90
2022-11-29T07:35:01.472Z,5.89
2022-11-29T07:37:42.853Z,5.88
2022-11-29T07:40:37.392Z,5.89
2022-11-29T07:43:16.549Z,5.90
2022-11-29T07:45:43.095Z,5.93
2022-11-29T07:48:11.800Z,5.95
2022-11-29T07:50:40.100Z,5.95
2022-11-29T07:53:06.641Z,5.94
2022-11-29T07:55:33.832Z,5.92
2022-11-29T07:58:00.240Z,5.92
2022-11-29T08:00:26.651Z,5.90
2022-11-29T08:02:53.208Z,5.90
2022-11-29T08:05:19.593Z,5.94
2022-11-29T08:07:46.205Z,5.93
2022-11-29T08:10:15.498Z,5.94
2022-11-29T08:12:44.264Z,5.94
2022-11-29T08:15:10.999Z,5.93
2022-11-29T08:17:38.364Z,5.93
2022-11-29T08:20:06.432Z,5.94
2022-11-29T08:22:32.988Z,5.91
2022-11-29T08:24:59.496Z,5.88
2022-11-29T08:27:26.273Z,5.87
2022-11-29T08:29:52.659Z,5.83
2022-11-29T08:32:19.162Z,5.83
2022-11-29T08:34:45.864Z,5.84
2022-11-29T08:37:12.555Z,5.82
2022-11-29T08:39:39.070Z,5.83
2022-11-29T08:42:05.740Z,5.85
2022-11-29T08:44:32.082Z,5.84
2022-11-29T08:46:58.587Z,5.89
2022-11-29T08:49:32.370Z,5.87
2022-11-29T08:51:58.819Z,5.86
2022-11-29T08:54:25.361Z,5.93
2022-11-29T08:59:38.129Z,5.98
2022-11-29T09:02:04.586Z,5.98
2022-11-29T09:04:30.922Z,5.97
2022-11-29T09:06:57.328Z,6.01
2022-11-29T09:09:23.830Z,6.10
2022-11-29T09:11:50.344Z,6.14
2022-11-29T09:14:17.566Z,6.18
2022-11-29T09:16:44.169Z,6.19
2022-11-29T09:19:13.353Z,6.28
2022-11-29T09:21:40.060Z,6.29
2022-11-29T09:24:06.820Z,6.32
2022-11-29T09:26:36.351Z,6.37
2022-11-29T09:29:05.245Z,6.38
2022-11-29T09:31:32.940Z,6.32
2022-11-29T09:33:59.586Z,6.30
2022-11-29T09:36:29.079Z,6.31
2022-11-29T09:38:56.848Z,6.30
2022-11-29T09:41:48.773Z,6.31
2022-11-29T09:44:25.827Z,6.29
2022-11-29T09:47:11.235Z,6.35
2022-11-29T09:50:02.158Z,6.39
2022-11-29T09:52:31.505Z,6.45
2022-11-29T09:55:21.707Z,6.48
2022-11-29T09:57:49.826Z,6.51
2022-11-29T10:00:18.971Z,6.57
2022-11-29T10:02:54.089Z,6.60
2022-11-29T10:05:38.296Z,6.55
2022-11-29T10:08:14.236Z,6.52
2022-11-29T10:10:46.196Z,6.59
2022-11-29T10:13:26.141Z,6.62
2022-11-29T10:16:11.366Z,6.64
2022-11-29T10:18:48.017Z,6.72
2022-11-29T10:21:21.615Z,6.77
2022-11-29T10:24:14.099Z,6.79
2022-11-29T10:26:41.187Z,6.69
2022-11-29T10:29:13.055Z,6.74
2022-11-29T10:31:43.419Z,6.84
2022-11-29T10:34:14.777Z,6.90
2022-11-29T10:36:47.830Z,6.70
2022-11-29T10:39:25.021Z,6.82
2022-11-29T10:41:55.919Z,6.99
2022-11-29T10:44:22.588Z,7.07
2022-11-29T10:46:50.563Z,7.08
2022-11-29T10:49:23.586Z,7.02
2022-11-29T10:51:50.132Z,6.93
2022-11-29T10:54:31.677Z,6.98
2022-11-29T10:57:00.633Z,6.90
2022-11-29T10:59:29.783Z,6.91
2022-11-29T11:01:57.521Z,6.89
2022-11-29T11:04:47.675Z,6.93
2022-11-29T11:07:33.012Z,6.89
2022-11-29T11:09:59.977Z,6.87
2022-11-29T11:12:32.685Z,6.85
2022-11-29T11:15:27.676Z,6.85
2022-11-29T11:18:02.743Z,6.87
2022-11-29T11:20:32.112Z,6.85
2022-11-29T11:23:04.571Z,6.84
2022-11-29T11:25:40.155Z,6.90
2022-11-29T11:28:21.282Z,6.89
2022-11-29T11:30:54.724Z,6.89
2022-11-29T11:33:26.238Z,6.96
2022-11-29T11:36:14.684Z,6.99
2022-11-29T11:38:50.962Z,7.02
2022-11-29T11:41:20.951Z,7.06
2022-11-29T11:43:59.436Z,6.97
2022-11-29T11:46:47.857Z,6.94
2022-11-29T11:49:26.080Z,6.96
2022-11-29T11:51:52.680Z,6.97
2022-11-29T11:54:20.017Z,6.97
2022-11-29T11:56:46.447Z,6.89
2022-11-29T11:59:22.546Z,6.80
2022-11-29T12:01:49.159Z,6.76
2022-11-29T12:04:36.027Z,6.72
2022-11-29T12:08:06.082Z,6.67
2022-11-29T12:10:30.602Z,6.69
2022-11-29T12:12:59.628Z,6.67
2022-11-29T12:15:32.873Z,6.69
2022-11-29T12:18:08.491Z,6.72
2022-11-29T12:21:03.602Z,6.77
2022-11-29T12:23:46.443Z,6.69
2022-11-29T12:26:48.908Z,6.71
2022-11-29T12:29:15.319Z,6.72
2022-11-29T12:31:52.942Z,6.79
2022-11-29T12:34:45.578Z,6.81
2022-11-29T12:37:34.355Z,6.78
2022-11-29T12:40:17.802Z,6.81
2022-11-29T12:43:33.708Z,6.88
2022-11-29T12:46:11.746Z,6.91
2022-11-29T12:48:59.941Z,6.93
2022-11-29T12:52:02.415Z,6.98
2022-11-29T12:54:55.383Z,6.84
2022-11-29T12:57:29.217Z,6.85
2022-11-29T12:59:58.384Z,6.85
2022-11-29T13:02:35.601Z,6.94
2022-11-29T13:05:23.332Z,6.96
2022-11-29T13:08:12.201Z,7.04
2022-11-29T13:11:12.626Z,7.10
2022-11-29T13:13:42.528Z,7.11
2022-11-29T13:16:30.906Z,7.17
2022-11-29T13:19:23.009Z,7.06
2022-11-29T13:22:07.203Z,7.09
2022-11-29T13:24:42.874Z,7.01
2022-11-29T13:27:16.096Z,7.02
2022-11-29T13:29:43.080Z,7.06
2022-11-29T13:32:29.753Z,7.01
2022-11-29T13:35:01.187Z,7.01
2022-11-29T13:37:38.889Z,6.93
2022-11-29T13:40:36.742Z,6.92
2022-11-29T13:43:19.923Z,7.00
2022-11-29T13:46:01.757Z,6.93
2022-11-29T13:48:29.090Z,6.90
2022-11-29T13:50:57.532Z,7.01
2022-11-29T13:53:28.000Z,7.00
2022-11-29T13:56:00.771Z,6.96
2022-11-29T13:58:38.511Z,6.94
2022-11-29T14:01:11.137Z,6.98
2022-11-29T14:03:40.535Z,6.94
2022-11-29T14:06:10.672Z,6.91
2022-11-29T14:09:10.799Z,6.93
2022-11-29T14:11:37.429Z,6.98
2022-11-29T14:14:22.537Z,6.96
2022-11-29T14:16:52.221Z,6.92
2022-11-29T14:19:23.781Z,6.92
2022-11-29T14:21:56.054Z,6.92
2022-11-29T14:24:43.562Z,6.90
2022-11-29T14:27:13.422Z,6.86
2022-11-29T14:29:48.917Z,6.80
2022-11-29T14:32:52.475Z,6.80
2022-11-29T14:36:02.825Z,6.80
2022-11-29T14:39:20.803Z,6.78
2022-11-29T14:42:05.990Z,6.79
2022-11-29T14:44:34.365Z,6.82
2022-11-29T14:47:08.912Z,6.82
2022-11-29T14:49:48.959Z,6.80
2022-11-29T14:52:15.265Z,6.80
2022-11-29T14:54:58.005Z,6.75
2022-11-29T14:58:01.828Z,6.75
2022-11-29T15:00:38.359Z,6.76
2022-11-29T15:03:20.935Z,6.69
2022-11-29T15:05:58.048Z,6.68
2022-11-29T15:08:35.443Z,6.66
2022-11-29T15:11:05.483Z,6.63
2022-11-29T15:13:35.062Z,6.61
2022-11-29T15:16:33.044Z,6.59
2022-11-29T15:19:21.291Z,6.57
2022-11-29T15:22:06.287Z,6.56
2022-11-29T15:24:49.903Z,6.51
2022-11-29T15:27:16.843Z,6.53
2022-11-29T15:29:43.357Z,6.52
2022-11-29T15:32:21.800Z,6.52
2022-11-29T15:34:50.863Z,6.52
2022-11-29T15:37:35.659Z,6.52
2022-11-29T15:40:16.188Z,6.49
2022-11-29T15:42:58.199Z,6.44
2022-11-29T15:45:26.285Z,6.43
2022-11-29T15:47:53.217Z,6.40
2022-11-29T15:50:25.204Z,6.35
2022-11-29T15:52:57.028Z,6.34
2022-11-29T15:55:23.976Z,6.32
2022-11-29T15:57:52.992Z,6.33
2022-11-29T16:00:21.972Z,6.33
2022-11-29T16:02:54.280Z,6.34
2022-11-29T16:05:25.391Z,6.32
2022-11-29T16:08:00.493Z,6.30
2022-11-29T16:10:42.422Z,6.30
2022-11-29T16:13:35.379Z,6.29
2022-11-29T16:16:18.865Z,6.30
2022-11-29T16:18:47.253Z,6.27
2022-11-29T16:21:26.093Z,6.26
2022-11-29T16:23:53.228Z,6.22
2022-11-29T16:26:36.951Z,6.21
2022-11-29T16:29:03.519Z,6.20
2022-11-29T16:31:38.415Z,6.20
2022-11-29T16:34:15.052Z,6.20
2022-11-29T16:36:41.680Z,6.20
2022-11-29T16:39:22.791Z,6.20
2022-11-29T16:42:06.209Z,6.20
2022-11-29T16:44:41.331Z,6.18
2022-11-29T16:47:28.624Z,6.16
2022-11-29T16:50:01.094Z,6.13
2022-11-29T16:52:33.181Z,6.14
2022-11-29T16:55:00.024Z,6.18
2022-11-29T16:57:28.036Z,6.14
2022-11-29T16:59:54.579Z,6.13
2022-11-29T17:02:21.011Z,6.14
2022-11-29T17:04:47.937Z,6.14
2022-11-29T17:07:28.220Z,6.15
2022-11-29T17:09:55.261Z,6.12
2022-11-29T17:12:21.695Z,6.15
2022-11-29T17:14:48.400Z,6.14
2022-11-29T17:17:16.873Z,6.11
2022-11-29T17:19:43.449Z,6.11
2022-11-29T17:22:10.262Z,6.08
2022-11-29T17:24:39.504Z,6.06
2022-11-29T17:27:07.514Z,6.05
2022-11-29T17:29:34.026Z,6.03
2022-11-29T17:32:00.422Z,5.98
2022-11-29T17:34:26.848Z,5.96
2022-11-29T17:36:53.184Z,5.98
2022-11-29T17:39:19.709Z,5.98
2022-11-29T17:41:46.775Z,5.98
2022-11-29T17:44:13.240Z,5.99
2022-11-29T17:46:40.394Z,5.98
2022-11-29T17:49:08.797Z,5.98
2022-11-29T17:51:51.710Z,5.94
2022-11-29T17:54:19.092Z,5.93
2022-11-29T17:56:45.723Z,5.92
2022-11-29T17:59:12.206Z,5.93
2022-11-29T18:01:38.633Z,5.90
2022-11-29T18:04:06.331Z,5.96
2022-11-29T18:06:39.190Z,6.00
2022-11-29T18:09:07.881Z,6.03
2022-11-29T18:11:47.122Z,6.01
2022-11-29T18:14:20.070Z,6.02
2022-11-29T18:16:46.636Z,6.03
2022-11-29T18:19:16.331Z,6.05
2022-11-29T18:21:43.293Z,6.06
2022-11-29T18:24:10.752Z,6.05
2022-11-29T18:26:38.173Z,6.04
2022-11-29T18:29:06.045Z,6.03
2022-11-29T18:31:35.929Z,5.99
2022-11-29T18:34:05.132Z,5.99
2022-11-29T18:36:33.820Z,6.04
2022-11-29T18:39:09.430Z,6.02
2022-11-29T18:41:36.610Z,6.04
2022-11-29T18:44:07.563Z,6.04
2022-11-29T18:46:34.265Z,6.03
2022-11-29T18:49:01.138Z,6.00
2022-11-29T18:51:29.397Z,6.01
2022-11-29T18:53:56.330Z,6.01
2022-11-29T18:56:25.525Z,5.96
2022-11-29T18:58:58.695Z,5.95
2022-11-29T19:01:27.526Z,5.97
2022-11-29T19:03:57.114Z,5.96
2022-11-29T19:06:38.573Z,5.96
2022-11-29T19:09:07.450Z,5.95
2022-11-29T19:11:34.478Z,5.93
2022-11-29T19:14:07.106Z,5.96
2022-11-29T19:16:34.756Z,5.95
2022-11-29T19:19:02.020Z,5.96
2022-11-29T19:21:31.054Z,5.94
2022-11-29T19:23:59.986Z,5.92
2022-11-29T19:26:28.930Z,5.91
2022-11-29T19:28:56.058Z,5.93
2022-11-29T19:31:25.624Z,5.89
2022-11-29T19:33:52.825Z,5.90
2022-11-29T19:36:25.252Z,5.91
2022-11-29T19:38:54.166Z,5.91
2022-11-29T19:41:23.405Z,5.90
2022-11-29T19:43:50.873Z,5.89
2022-11-29T19:46:20.014Z,5.86
2022-11-29T19:48:46.976Z,5.81
2022-11-29T19:51:15.107Z,5.82
2022-11-29T19:53:41.509Z,5.83
2022-11-29T19:56:13.213Z,5.84
2022-11-29T19:58:39.607Z,5.84
2022-11-29T20:01:08.193Z,5.84
2022-11-29T20:03:35.049Z,5.84
2022-11-29T20:06:02.244Z,5.85
2022-11-29T20:08:29.466Z,5.86
2022-11-29T20:10:55.934Z,5.86
2022-11-29T20:13:22.981Z,5.86
2022-11-29T20:15:49.498Z,5.87
2022-11-29T20:18:15.871Z,5.83
2022-11-29T20:20:42.492Z,5.83
2022-11-29T20:23:09.006Z,5.84
2022-11-29T20:25:35.476Z,5.83
2022-11-29T20:28:02.225Z,5.83
2022-11-29T20:30:28.575Z,5.80
2022-11-29T20:32:55.042Z,5.76
2022-11-29T20:35:21.774Z,5.75
2022-11-29T20:38:19.896Z,5.73
2022-11-29T20:41:02.639Z,5.69
2022-11-29T20:43:38.591Z,5.68
2022-11-29T20:46:05.400Z,5.67
2022-11-29T20:48:32.076Z,5.66
2022-11-29T20:51:00.861Z,5.65
2022-11-29T20:53:39.275Z,5.66
2022-11-29T20:56:07.757Z,5.66
2022-11-29T20:58:34.527Z,5.67
2022-11-29T21:01:00.961Z,5.64
2022-11-29T21:03:28.652Z,5.63
2022-11-29T21:05:56.388Z,5.63
2022-11-29T21:08:26.040Z,5.61
2022-11-29T21:10:53.284Z,5.64
2022-11-29T21:13:22.526Z,5.63
2022-11-29T21:15:49.903Z,5.66
2022-11-29T21:18:24.823Z,5.64
2022-11-29T21:21:03.098Z,5.66
2022-11-29T21:24:00.880Z,5.66
2022-11-29T21:26:37.168Z,5.62
2022-11-29T21:29:09.388Z,5.63
2022-11-29T21:31:36.413Z,5.59
2022-11-29T21:34:02.814Z,5.59
2022-11-29T21:36:29.665Z,5.60
2022-11-29T21:38:57.902Z,5.60
2022-11-29T21:41:27.323Z,5.57
2022-11-29T21:44:09.727Z,5.57
2022-11-29T21:46:36.320Z,5.57
2022-11-29T21:49:02.974Z,5.56
2022-11-29T21:51:29.308Z,5.56
2022-11-29T21:53:55.669Z,5.57
2022-11-29T21:56:22.133Z,5.57
2022-11-29T21:58:48.580Z,5.56
2022-11-29T22:01:18.058Z,5.59
2022-11-29T22:03:44.892Z,5.59
2022-11-29T22:06:13.330Z,5.55
2022-11-29T22:08:41.472Z,5.54
2022-11-29T22:11:10.675Z,5.55
2022-11-29T22:13:38.991Z,5.56
2022-11-29T22:16:07.901Z,5.54
2022-11-29T22:18:34.442Z,5.57
2022-11-29T22:21:07.294Z,5.57
2022-11-29T22:23:34.258Z,5.58
2022-11-29T22:26:05.420Z,5.59
2022-11-29T22:28:32.137Z,5.56
2022-11-29T22:31:07.922Z,5.54
2022-11-29T22:33:34.558Z,5.54
2022-11-29T22:36:05.995Z,5.54
2022-11-29T22:38:32.575Z,5.52
2022-11-29T22:41:00.866Z,5.50
2022-11-29T22:43:28.140Z,5.49
2022-11-29T22:45:54.790Z,5.50
2022-11-29T22:48:21.280Z,5.50
2022-11-29T22:50:47.816Z,5.48
2022-11-29T22:53:14.473Z,5.47
2022-11-29T22:55:40.889Z,5.44
2022-11-29T22:58:07.237Z,5.55
2022-11-29T23:00:33.659Z,5.50
2022-11-29T23:03:01.833Z,5.46
2022-11-29T23:05:32.075Z,5.52
2022-11-29T23:07:59.116Z,5.54
2022-11-29T23:10:25.480Z,5.46
2022-11-29T23:12:51.931Z,5.41
2022-11-29T23:15:18.587Z,5.37
2022-11-29T23:17:45.049Z,5.34
2022-11-29T23:20:11.901Z,5.30
2022-11-29T23:22:38.377Z,5.29
2022-11-29T23:25:06.443Z,5.26
2022-11-29T23:27:33.251Z,5.22
2022-11-29T23:29:59.644Z,5.22
2022-11-29T23:32:26.287Z,5.20
2022-11-29T23:34:52.932Z,5.18
2022-11-29T23:37:19.280Z,5.18
2022-11-29T23:39:45.640Z,5.20
2022-11-29T23:42:11.992Z,5.18
2022-11-29T23:44:38.369Z,5.16
2022-11-29T23:47:04.985Z,5.17
2022-11-29T23:49:31.529Z,5.20
2022-11-29T23:51:58.149Z,5.22
2022-11-29T23:54:24.489Z,5.20
2022-11-29T23:56:51.113Z,5.21
2022-11-29T23:59:17.778Z,5.19
